createdAt,value
2023-04-10T00:01:36.368Z,1.68
2023-04-10T00:04:44.168Z,1.67
2023-04-10T00:07:50.710Z,1.52
2023-04-10T00:10:57.090Z,1.50
2023-04-10T00:14:01.980Z,1.47
2023-04-10T00:17:08.435Z,1.40
2023-04-10T00:20:15.437Z,1.32
2023-04-10T00:23:20.305Z,1.36
2023-04-10T00:26:26.887Z,1.31
2023-04-10T00:29:31.785Z,1.39
2023-04-10T00:32:37.908Z,1.40
2023-04-10T00:35:43.290Z,1.34
2023-04-10T00:38:48.588Z,1.24
2023-04-10T00:41:53.360Z,1.16
2023-04-10T00:44:58.110Z,1.26
2023-04-10T00:48:04.302Z,1.28
2023-04-10T00:51:10.156Z,1.29
2023-04-10T00:54:14.923Z,1.28
2023-04-10T00:57:19.621Z,1.24
2023-04-10T01:00:24.361Z,1.22
2023-04-10T01:03:30.651Z,1.19
2023-04-10T01:06:38.124Z,1.20
2023-04-10T01:09:43.401Z,1.16
2023-04-10T01:12:52.728Z,1.07
2023-04-10T01:15:59.320Z,1.08
2023-04-10T01:19:06.527Z,1.08
2023-04-10T01:22:13.778Z,1.04
2023-04-10T01:25:29.880Z,1.00
2023-04-10T01:28:52.797Z,1.06
2023-04-10T01:31:59.859Z,1.05
2023-04-10T01:35:06.094Z,1.12
2023-04-10T01:38:12.601Z,1.14
2023-04-10T01:41:17.513Z,1.11
2023-04-10T01:44:23.226Z,0.99
2023-04-10T01:47:30.547Z,0.92
2023-04-10T01:50:35.297Z,0.97
2023-04-10T01:53:40.713Z,0.97
2023-04-10T01:56:45.609Z,0.99
2023-04-10T01:59:53.157Z,0.96
2023-04-10T02:02:59.624Z,0.92
2023-04-10T02:06:08.287Z,0.95
2023-04-10T02:09:14.164Z,1.04
2023-04-10T02:12:20.187Z,1.09
2023-04-10T02:15:26.699Z,1.05
2023-04-10T02:18:33.318Z,1.01
2023-04-10T02:21:39.924Z,1.05
2023-04-10T02:24:45.146Z,0.92
2023-04-10T02:27:49.836Z,0.99
2023-04-10T02:30:54.671Z,0.95
2023-04-10T02:34:00.856Z,0.96
2023-04-10T02:37:05.520Z,0.85
2023-04-10T02:40:12.203Z,0.81
2023-04-10T02:43:25.520Z,0.80
2023-04-10T02:46:30.785Z,0.86
2023-04-10T02:49:37.638Z,0.88
2023-04-10T02:52:49.480Z,0.86
2023-04-10T02:55:54.797Z,0.89
2023-04-10T02:58:59.656Z,0.89
2023-04-10T03:02:04.656Z,0.81
2023-04-10T03:05:14.431Z,0.82
2023-04-10T03:08:19.715Z,0.69
2023-04-10T03:11:25.197Z,0.63
2023-04-10T03:14:29.927Z,0.63
2023-04-10T03:17:35.118Z,0.70
2023-04-10T03:20:43.127Z,0.64
2023-04-10T03:23:49.355Z,0.57
2023-04-10T03:26:54.634Z,0.58
2023-04-10T03:29:59.393Z,0.48
2023-04-10T03:33:04.871Z,0.49
2023-04-10T03:36:12.226Z,0.45
2023-04-10T03:39:17.217Z,0.46
2023-04-10T03:42:21.648Z,0.39
2023-04-10T03:45:26.400Z,0.47
2023-04-10T03:48:32.129Z,0.54
2023-04-10T03:51:38.887Z,0.58
2023-04-10T03:54:43.638Z,0.45
2023-04-10T03:58:00.240Z,0.51
2023-04-10T04:01:06.320Z,0.55
2023-04-10T04:04:18.763Z,0.54
2023-04-10T04:07:25.346Z,0.61
2023-04-10T04:10:38.913Z,0.58
2023-04-10T04:14:01.083Z,0.61
2023-04-10T04:17:25.246Z,0.71
2023-04-10T04:20:42.243Z,0.66
2023-04-10T04:23:55.740Z,0.62
2023-04-10T04:27:10.059Z,0.72
2023-04-10T04:30:40.953Z,0.82
2023-04-10T04:34:13.825Z,0.90
2023-04-10T04:37:37.450Z,0.91
2023-04-10T04:41:04.996Z,0.88
2023-04-10T04:44:22.371Z,0.85
2023-04-10T04:47:38.431Z,1.03
2023-04-10T04:50:55.471Z,1.06
2023-04-10T04:54:35.970Z,1.29
2023-04-10T04:57:56.750Z,1.32
2023-04-10T05:01:24.057Z,1.33
2023-04-10T05:04:52.004Z,1.38
2023-04-10T05:08:15.932Z,1.44
2023-04-10T05:11:33.246Z,1.67
2023-04-10T05:15:14.694Z,1.71
2023-04-10T05:18:26.464Z,1.80
2023-04-10T05:21:51.403Z,1.89
2023-04-10T05:25:35.635Z,1.86
2023-04-10T05:28:56.293Z,1.77
2023-04-10T05:32:08.539Z,1.90
2023-04-10T05:35:22.857Z,2.05
2023-04-10T05:38:54.260Z,2.17
2023-04-10T05:42:13.473Z,2.14
2023-04-10T05:45:28.721Z,2.44
2023-04-10T05:48:59.130Z,2.62
2023-04-10T05:52:32.763Z,2.76
2023-04-10T05:56:02.057Z,2.75
2023-04-10T05:59:27.036Z,2.82
2023-04-10T06:02:38.522Z,2.95
2023-04-10T06:05:47.166Z,2.99
2023-04-10T06:08:52.413Z,3.07
2023-04-10T06:11:57.892Z,3.29
2023-04-10T06:15:04.474Z,3.47
2023-04-10T06:18:13.981Z,3.48
2023-04-10T06:21:20.454Z,3.50
2023-04-10T06:24:25.926Z,3.59
2023-04-10T06:27:33.436Z,3.68
2023-04-10T06:30:38.518Z,3.71
2023-04-10T06:33:45.516Z,4.01
2023-04-10T06:36:52.718Z,4.16
2023-04-10T06:40:05.369Z,4.32
2023-04-10T06:43:11.628Z,4.60
2023-04-10T06:46:17.921Z,4.85
2023-04-10T06:49:23.135Z,5.11
2023-04-10T06:52:29.341Z,5.44
2023-04-10T06:55:37.655Z,5.75
2023-04-10T06:58:42.883Z,5.90
2023-04-10T07:01:48.018Z,5.93
2023-04-10T07:04:53.756Z,5.82
2023-04-10T07:08:00.306Z,5.75
2023-04-10T07:11:05.446Z,5.82
2023-04-10T07:14:12.848Z,6.08
2023-04-10T07:17:17.966Z,6.04
2023-04-10T07:20:23.051Z,6.20
2023-04-10T07:23:29.495Z,6.14
2023-04-10T07:26:34.699Z,6.23
2023-04-10T07:29:39.846Z,6.27
2023-04-10T07:32:47.037Z,6.36
2023-04-10T07:35:52.442Z,6.37
2023-04-10T07:38:58.899Z,6.32
2023-04-10T07:42:04.004Z,6.19
2023-04-10T07:45:10.374Z,6.29
2023-04-10T07:48:16.326Z,6.40
2023-04-10T07:51:21.360Z,6.29
2023-04-10T07:54:27.867Z,6.50
2023-04-10T07:57:33.287Z,6.45
2023-04-10T08:00:38.609Z,6.63
2023-04-10T08:03:44.978Z,6.59
2023-04-10T08:06:50.635Z,6.64
2023-04-10T08:09:57.193Z,6.63
2023-04-10T08:13:02.258Z,6.78
2023-04-10T08:16:08.350Z,7.08
2023-04-10T08:19:13.404Z,7.35
2023-04-10T08:22:18.431Z,7.44
2023-04-10T08:25:25.155Z,7.47
2023-04-10T08:28:30.139Z,7.40
2023-04-10T08:31:35.856Z,7.62
2023-04-10T08:34:41.011Z,7.66
2023-04-10T08:37:49.906Z,7.45
2023-04-10T08:41:00.101Z,7.49
2023-04-10T08:44:09.116Z,7.46
2023-04-10T08:47:15.745Z,7.16
2023-04-10T08:50:21.948Z,7.17
2023-04-10T08:53:27.032Z,7.29
2023-04-10T08:56:35.038Z,7.28
2023-04-10T08:59:40.093Z,7.53
2023-04-10T09:02:45.426Z,7.43
2023-04-10T09:05:50.795Z,7.56
2023-04-10T09:08:56.057Z,7.55
2023-04-10T09:12:04.335Z,7.79
2023-04-10T09:15:11.714Z,7.78
2023-04-10T09:18:34.032Z,7.98
2023-04-10T09:21:39.124Z,7.80
2023-04-10T09:24:45.365Z,7.83
2023-04-10T09:28:02.644Z,7.76
2023-04-10T09:31:30.625Z,7.74
2023-04-10T09:34:35.812Z,7.88
2023-04-10T09:37:42.602Z,7.81
2023-04-10T09:40:48.329Z,7.82
2023-04-10T09:44:08.114Z,7.98
2023-04-10T09:47:21.584Z,8.10
2023-04-10T09:50:39.567Z,8.08
2023-04-10T09:53:51.255Z,8.20
2023-04-10T09:56:56.801Z,8.18
2023-04-10T10:00:04.364Z,8.22
2023-04-10T10:03:17.901Z,8.56
2023-04-10T10:06:23.328Z,8.51
2023-04-10T10:09:29.907Z,8.47
2023-04-10T10:12:42.175Z,8.62
2023-04-10T10:15:53.679Z,8.65
2023-04-10T10:19:06.543Z,8.69
2023-04-10T10:22:12.136Z,8.84
2023-04-10T10:25:17.263Z,8.96
2023-04-10T10:28:23.065Z,8.90
2023-04-10T10:31:32.607Z,8.83
2023-04-10T10:34:39.076Z,8.77
2023-04-10T10:37:45.954Z,8.82
2023-04-10T10:40:56.222Z,8.95
2023-04-10T10:44:08.299Z,9.16
2023-04-10T10:47:19.611Z,9.15
2023-04-10T10:50:26.095Z,9.15
2023-04-10T10:53:38.890Z,9.34
2023-04-10T10:56:44.261Z,9.54
2023-04-10T10:59:58.429Z,9.41
2023-04-10T11:03:31.261Z,9.51
2023-04-10T11:06:53.203Z,9.63
2023-04-10T11:09:58.295Z,9.53
2023-04-10T11:13:19.744Z,9.56
2023-04-10T11:16:26.357Z,9.55
2023-04-10T11:19:31.397Z,9.66
2023-04-10T11:23:11.307Z,9.63
2023-04-10T11:26:16.593Z,9.66
2023-04-10T11:29:37.011Z,9.72
2023-04-10T11:32:43.328Z,9.62
2023-04-10T11:35:48.546Z,9.78
2023-04-10T11:38:59.048Z,9.65
2023-04-10T11:42:05.838Z,9.71
2023-04-10T11:45:29.169Z,9.72
2023-04-10T11:48:34.587Z,9.83
2023-04-10T11:51:40.343Z,9.70
2023-04-10T11:54:51.676Z,9.99
2023-04-10T11:57:56.738Z,9.94
2023-04-10T12:01:03.535Z,9.96
2023-04-10T12:04:17.200Z,10.00
2023-04-10T12:07:27.517Z,9.88
2023-04-10T12:10:47.010Z,9.81
2023-04-10T12:13:55.276Z,9.69
2023-04-10T12:17:00.473Z,9.73
2023-04-10T12:20:06.380Z,9.90
2023-04-10T12:23:12.493Z,9.90
2023-04-10T12:26:19.715Z,9.91
2023-04-10T12:29:28.833Z,9.87
2023-04-10T12:32:34.746Z,9.87
2023-04-10T12:35:40.233Z,9.86
2023-04-10T12:38:46.107Z,9.71
2023-04-10T12:41:52.554Z,9.68
2023-04-10T12:44:58.939Z,9.78
2023-04-10T12:48:03.981Z,9.75
2023-04-10T12:51:09.465Z,9.62
2023-04-10T12:54:28.177Z,9.67
2023-04-10T12:57:34.702Z,9.80
2023-04-10T13:00:39.774Z,9.82
2023-04-10T13:03:46.742Z,9.74
2023-04-10T13:06:53.245Z,9.69
2023-04-10T13:09:58.778Z,9.69
2023-04-10T13:13:07.167Z,9.89
2023-04-10T13:16:14.554Z,9.72
2023-04-10T13:19:19.722Z,9.88
2023-04-10T13:22:24.946Z,9.72
2023-04-10T13:25:29.944Z,9.88
2023-04-10T13:28:36.481Z,10.04
2023-04-10T13:31:41.612Z,9.90
2023-04-10T13:34:46.798Z,9.87
2023-04-10T13:37:54.353Z,9.89
2023-04-10T13:40:59.365Z,9.83
2023-04-10T13:44:05.949Z,9.75
2023-04-10T13:47:11.142Z,9.87
2023-04-10T13:50:16.191Z,9.71
2023-04-10T13:53:21.340Z,9.66
2023-04-10T13:56:26.402Z,9.69
2023-04-10T13:59:32.947Z,9.71
2023-04-10T14:02:38.409Z,9.76
2023-04-10T14:05:43.574Z,9.64
2023-04-10T14:08:48.891Z,9.66
2023-04-10T14:11:54.438Z,9.49
2023-04-10T14:15:01.384Z,9.59
2023-04-10T14:18:06.641Z,9.63
2023-04-10T14:21:12.842Z,9.44
2023-04-10T14:24:17.996Z,9.42
2023-04-10T14:27:23.075Z,9.28
2023-04-10T14:30:31.141Z,9.33
2023-04-10T14:33:36.318Z,9.40
2023-04-10T14:36:41.851Z,9.40
2023-04-10T14:39:47.037Z,9.42
2023-04-10T14:42:53.384Z,9.45
2023-04-10T14:45:59.787Z,9.36
2023-04-10T14:49:04.941Z,9.24
2023-04-10T14:52:10.361Z,9.23
2023-04-10T14:55:15.364Z,9.06
2023-04-10T14:58:20.416Z,9.06
2023-04-10T15:01:27.009Z,9.09
2023-04-10T15:04:32.286Z,9.02
2023-04-10T15:07:37.526Z,8.91
2023-04-10T15:10:42.771Z,8.90
2023-04-10T15:13:48.195Z,8.94
2023-04-10T15:16:54.930Z,8.94
2023-04-10T15:20:00.181Z,8.79
2023-04-10T15:23:05.751Z,8.75
2023-04-10T15:26:14.128Z,8.63
2023-04-10T15:29:19.155Z,8.42
2023-04-10T15:32:25.747Z,8.42
2023-04-10T15:35:34.287Z,8.42
2023-04-10T15:38:39.458Z,8.35
2023-04-10T15:41:44.502Z,8.22
2023-04-10T15:44:49.720Z,8.16
2023-04-10T15:47:56.171Z,8.16
2023-04-10T15:51:04.639Z,8.15
2023-04-10T15:54:11.066Z,8.13
2023-04-10T15:57:16.158Z,8.12
2023-04-10T16:00:21.743Z,8.13
2023-04-10T16:03:30.241Z,7.97
2023-04-10T16:06:35.863Z,7.91
2023-04-10T16:09:40.894Z,7.78
2023-04-10T16:12:45.927Z,7.88
2023-04-10T16:15:51.711Z,7.90
2023-04-10T16:19:00.507Z,7.86
2023-04-10T16:22:06.665Z,7.93
2023-04-10T16:25:12.689Z,7.93
2023-04-10T16:28:18.033Z,7.87
2023-04-10T16:31:23.128Z,7.77
2023-04-10T16:34:29.564Z,7.70
2023-04-10T16:37:34.636Z,7.69
2023-04-10T16:40:40.898Z,7.69
2023-04-10T16:43:45.975Z,7.60
2023-04-10T16:46:51.157Z,7.54
2023-04-10T16:49:57.698Z,7.46
2023-04-10T16:53:02.875Z,7.28
2023-04-10T16:56:08.107Z,7.32
2023-04-10T16:59:13.141Z,7.21
2023-04-10T17:02:18.203Z,7.15
2023-04-10T17:05:24.805Z,7.07
2023-04-10T17:08:29.908Z,6.94
2023-04-10T17:11:34.977Z,6.88
2023-04-10T17:14:40.005Z,6.71
2023-04-10T17:17:45.157Z,6.59
2023-04-10T17:20:51.642Z,6.61
2023-04-10T17:23:56.721Z,6.53
2023-04-10T17:27:02.484Z,6.42
2023-04-10T17:30:11.986Z,6.40
2023-04-10T17:33:17.042Z,6.32
2023-04-10T17:36:23.648Z,6.16
2023-04-10T17:39:28.858Z,6.15
2023-04-10T17:42:33.982Z,6.01
2023-04-10T17:45:39.267Z,6.03
2023-04-10T17:48:44.603Z,5.95
2023-04-10T17:51:51.597Z,5.79
2023-04-10T17:54:56.761Z,5.78
2023-04-10T17:58:01.822Z,5.75
2023-04-10T18:01:07.426Z,5.68
2023-04-10T18:04:13.261Z,5.53
2023-04-10T18:07:19.768Z,5.44
2023-04-10T18:10:25.230Z,5.36
2023-04-10T18:13:30.325Z,5.32
2023-04-10T18:16:35.719Z,5.30
2023-04-10T18:19:41.155Z,5.20
2023-04-10T18:22:48.237Z,5.18
2023-04-10T18:25:54.538Z,5.09
2023-04-10T18:29:00.380Z,5.12
2023-04-10T18:32:07.619Z,5.06
2023-04-10T18:35:12.786Z,4.92
2023-04-10T18:38:19.382Z,4.85
2023-04-10T18:41:24.513Z,4.76
2023-04-10T18:44:30.372Z,4.64
2023-04-10T18:47:36.534Z,4.47
2023-04-10T18:50:46.606Z,4.41
2023-04-10T18:53:53.478Z,4.44
2023-04-10T18:56:58.900Z,4.36
2023-04-10T19:00:06.864Z,4.32
2023-04-10T19:03:12.140Z,4.26
2023-04-10T19:06:17.881Z,4.20
2023-04-10T19:09:24.532Z,4.20
2023-04-10T19:12:29.657Z,4.16
2023-04-10T19:15:34.802Z,4.09
2023-04-10T19:18:39.944Z,3.97
2023-04-10T19:21:45.148Z,3.93
2023-04-10T19:24:51.615Z,3.94
2023-04-10T19:27:56.644Z,3.97
2023-04-10T19:31:02.002Z,3.91
2023-04-10T19:34:09.416Z,3.84
2023-04-10T19:37:14.598Z,3.83
2023-04-10T19:40:21.355Z,3.82
2023-04-10T19:43:26.530Z,3.79
2023-04-10T19:46:31.737Z,3.76
2023-04-10T19:49:37.042Z,3.71
2023-04-10T19:52:42.116Z,3.67
2023-04-10T19:55:48.603Z,3.56
2023-04-10T19:58:53.783Z,3.49
2023-04-10T20:01:59.231Z,3.50
2023-04-10T20:05:04.487Z,3.52
2023-04-10T20:08:09.720Z,3.47
2023-04-10T20:11:16.428Z,3.48
2023-04-10T20:14:21.571Z,3.51
2023-04-10T20:17:26.647Z,3.45
2023-04-10T20:20:31.727Z,3.38
2023-04-10T20:23:36.852Z,3.36
2023-04-10T20:26:45.467Z,3.32
2023-04-10T20:29:51.301Z,3.26
2023-04-10T20:32:56.828Z,3.21
2023-04-10T20:36:02.110Z,3.14
2023-04-10T20:39:07.231Z,3.14
2023-04-10T20:42:14.094Z,3.12
2023-04-10T20:45:19.266Z,3.08
2023-04-10T20:48:24.409Z,3.06
2023-04-10T20:51:29.725Z,3.02
2023-04-10T20:54:35.094Z,3.04
2023-04-10T20:57:41.538Z,2.92
2023-04-10T21:00:46.691Z,2.96
2023-04-10T21:03:51.700Z,3.06
2023-04-10T21:06:56.718Z,2.99
2023-04-10T21:10:01.856Z,2.88
2023-04-10T21:13:08.410Z,2.86
2023-04-10T21:16:14.197Z,2.87
2023-04-10T21:19:19.190Z,2.86
2023-04-10T21:22:24.215Z,2.97
2023-04-10T21:25:29.443Z,2.88
2023-04-10T21:28:35.806Z,2.83
2023-04-10T21:31:40.837Z,2.80
2023-04-10T21:34:46.176Z,2.81
2023-04-10T21:37:56.598Z,2.78
2023-04-10T21:41:01.951Z,2.78
2023-04-10T21:44:08.824Z,2.72
2023-04-10T21:47:14.640Z,2.65
2023-04-10T21:50:19.775Z,2.57
2023-04-10T21:53:24.860Z,2.48
2023-04-10T21:56:31.548Z,2.47
2023-04-10T21:59:38.401Z,2.38
2023-04-10T22:02:43.647Z,2.37
2023-04-10T22:05:50.309Z,2.31
2023-04-10T22:08:55.513Z,2.18
2023-04-10T22:12:00.790Z,2.27
2023-04-10T22:15:08.039Z,2.29
2023-04-10T22:18:14.461Z,2.41
2023-04-10T22:21:19.494Z,2.43
2023-04-10T22:24:24.560Z,2.41
2023-04-10T22:27:29.638Z,2.43
2023-04-10T22:30:36.216Z,2.38
2023-04-10T22:33:41.248Z,2.28
2023-04-10T22:36:46.269Z,2.41
2023-04-10T22:39:51.368Z,2.47
2023-04-10T22:42:56.420Z,2.46
2023-04-10T22:46:02.852Z,2.29
2023-04-10T22:49:07.924Z,2.34
2023-04-10T22:52:15.109Z,2.36
2023-04-10T22:55:20.264Z,2.41
2023-04-10T22:58:25.715Z,2.39
2023-04-10T23:01:32.244Z,2.39
2023-04-10T23:04:37.428Z,2.38
2023-04-10T23:07:42.477Z,2.36
2023-04-10T23:10:47.473Z,2.36
2023-04-10T23:13:52.451Z,2.31
2023-04-10T23:16:58.952Z,2.24
2023-04-10T23:20:04.359Z,2.15
2023-04-10T23:23:09.771Z,2.17
2023-04-10T23:26:15.933Z,2.06
2023-04-10T23:29:21.157Z,2.07
2023-04-10T23:32:28.017Z,2.09
2023-04-10T23:35:33.080Z,2.05
2023-04-10T23:38:38.128Z,2.04
2023-04-10T23:41:43.213Z,1.98
2023-04-10T23:44:48.497Z,1.97
2023-04-10T23:47:54.919Z,1.97
2023-04-10T23:51:06.968Z,1.96
2023-04-10T23:54:12.535Z,1.79
2023-04-10T23:57:17.858Z,1.82
